Ville De Bordeaux — FZCE — position and weather

sailwx.info

Track history (hours):
 
Tides and Currents Weather Stations Pressure Air Temp Water Temp Dewpoint Dewpoint Depression Visibility Wind Speed Wind Dir Waves Ship Positions

Ville De Bordeaux

Last reported at 2017-May-25 03:11 UTC. Time now 2017-May-25 05:06 UTC.
Position N 40°48' E 014°15'.

Length 150 m; beam 24 m.

Type: Ship. MMSI: 228084000.

Date/timePositionNaut miles runAvg speedWind from/ knotsBaromVisibWave heightAir tempDewpointWater temp
2017-May-25 03:11N 40°48' E 014°15'2 9.9
2017-May-25 03:00N 40°49' E 014°17'1 1.9
2017-May-25 02:20N 40°50' E 014°17'77 8.1
2017-May-24 16:55N 40°14' E 012°48'916.5
2017-May-24 16:24N 40°10' E 012°39'916.4
2017-May-24 15:52N 40°06' E 012°28'716.5
2017-May-24 15:28N 40°03' E 012°20'816.6
2017-May-24 15:00N 39°60' E 012°11'1216.5
2017-May-24 14:18N 39°54' E 011°58'1316.5
2017-May-24 13:29N 39°48' E 011°42'816.7
2017-May-24 12:59N 39°45' E 011°33'816.6
2017-May-24 12:31N 39°41' E 011°24'916.9
2017-May-24 11:58N 39°37' E 011°13'918.5
2017-May-24 11:29N 39°32' E 011°02'1018.7
2017-May-24 10:55N 39°28' E 010°50'818.6
2017-May-24 10:30N 39°25' E 010°41'918.4
2017-May-24 10:00N 39°21' E 010°30'44218.0
2017-May-23 09:29N 37°13' E 001°32'33318.3
2017-May-22 15:16N 35°59' W 005°13'519.4
2017-May-22 15:00N 35°58' W 005°19'189 6.6
2017-May-21 10:09N 36°34' W 009°10'7615.8
2017-May-21 05:18N 37°44' W 009°49'817.4
2017-May-21 04:49N 37°52' W 009°52'617.6
2017-May-21 04:30N 37°57' W 009°53'917.5
2017-May-21 04:00N 38°06' W 009°56'917.6
2017-May-21 03:30N 38°14' W 009°58'917.5
2017-May-21 03:00N 38°23' W 010°00'917.5
2017-May-21 02:30N 38°31' W 010°03'917.3
2017-May-21 02:00N 38°40' W 010°05'917.5
2017-May-21 01:30N 38°49' W 010°06'918.1
2017-May-21 01:00N 38°58' W 010°05'918.1
2017-May-21 00:30N 39°07' W 010°04'917.7
2017-May-21 00:00N 39°15' W 010°05'918.0
2017-May-20 23:30N 39°24' W 010°04'917.6
2017-May-20 23:00N 39°33' W 010°04'917.9
2017-May-20 22:30N 39°42' W 010°05'917.9
2017-May-20 22:00N 39°51' W 010°04'1817.9
2017-May-20 21:00N 40°09' W 010°04'917.8
2017-May-20 20:30N 40°18' W 010°04'917.8
2017-May-20 20:00N 40°27' W 010°04'917.7
2017-May-20 19:30N 40°36' W 010°04'917.8
2017-May-20 19:00N 40°44' W 010°05'1817.8
2017-May-20 18:00N 41°02' W 010°08'918.1
2017-May-20 17:30N 41°11' W 010°08'1817.8
2017-May-20 16:30N 41°29' W 010°09'46316.3
2017-May-19 12:07N 46°60' W 002°36'618.1
2017-May-19 11:46N 47°03' W 002°29'517.5
2017-May-19 11:28N 47°07' W 002°23'511.3
2017-May-19 11:00N 47°11' W 002°18'714.0
2017-May-19 10:30N 47°16' W 002°11'1 2.7
2017-May-19 10:00N 47°17' W 002°10'0 0.0
2017-May-19 09:12N 47°17' W 002°10'0 0.0
2017-May-19 08:48N 47°17' W 002°10'0 0.0
2017-May-19 08:24N 47°17' W 002°10'0 0.0
2017-May-19 07:24N 47°17' W 002°10'0 0.0
2017-May-19 06:54N 47°17' W 002°10'0 0.0
2017-May-19 06:30N 47°17' W 002°10'0 0.0
2017-May-19 03:42N 47°17' W 002°10'0 0.0
2017-May-19 03:30N 47°17' W 002°10'0 0.0
2017-May-19 03:00N 47°17' W 002°10'0 0.0
2017-May-19 02:18N 47°17' W 002°10'0 0.0
2017-May-19 00:42N 47°17' W 002°10'0 0.0
2017-May-19 00:18N 47°17' W 002°10'0 0.0
2017-May-18 23:54N 47°17' W 002°10'0 0.0
2017-May-18 23:24N 47°17' W 002°10'0 0.0
2017-May-18 23:00N 47°17' W 002°10'0 0.0
2017-May-18 22:30N 47°17' W 002°10'5 9.4
2017-May-18 22:00N 47°14' W 002°15'714.0
2017-May-18 21:30N 47°08' W 002°20'714.1
2017-May-18 21:00N 47°03' W 002°28'56416.2
2017-May-17 10:11N 39°21' W 009°52'317.4
2017-May-17 10:00N 39°17' W 009°52'817.4
2017-May-17 09:30N 39°09' W 009°52'917.1
2017-May-17 09:00N 39°00' W 009°51'917.6
2017-May-17 08:30N 38°52' W 009°51'817.0
2017-May-17 08:00N 38°43' W 009°50'917.2
2017-May-17 07:30N 38°35' W 009°47'917.3
2017-May-17 07:00N 38°26' W 009°45'917.8
2017-May-17 06:30N 38°18' W 009°43'917.7
2017-May-17 06:00N 38°09' W 009°40'917.7
2017-May-17 05:30N 38°01' W 009°37'917.8
2017-May-17 05:00N 37°52' W 009°34'917.7
2017-May-17 04:30N 37°43' W 009°32'917.8
2017-May-17 04:00N 37°35' W 009°29'917.5
2017-May-17 03:30N 37°26' W 009°27'917.3
2017-May-17 03:00N 37°18' W 009°25'917.3
2017-May-17 02:30N 37°09' W 009°22'3116.6
2017-May-17 00:39N 36°43' W 009°02'217.2
2017-May-17 00:30N 36°42' W 008°59'1718.0
2017-May-16 23:34N 36°37' W 008°39'318.0
2017-May-16 23:22N 36°36' W 008°35'717.9
2017-May-16 23:00N 36°34' W 008°27'44917.2
2017-May-15 20:56N 36°58' E 000°53'3111.7
2017-May-15 18:17N 37°06' E 001°30'611.6
2017-May-15 17:49N 37°07' E 001°37'411.6
2017-May-15 17:30N 37°08' E 001°41'14812.1
2017-May-15 05:19N 37°39' E 004°43'611.7
2017-May-15 04:47N 37°40' E 004°51'  
Track history (hours):
 
Tides and Currents Weather Stations Pressure Air Temp Water Temp Dewpoint Dewpoint Depression Visibility Wind Speed Wind Dir Waves Ship Positions

Ville De Bordeaux

Last reported at 2017-May-25 03:11 UTC. Time now 2017-May-25 05:06 UTC.
Position N 40°48' E 014°15'.

Length 150 m; beam 24 m.

Type: Ship. MMSI: 228084000.

Date/timePositionNaut miles runAvg speedWind from/ knotsBaromVisibWave heightAir tempDewpointWater temp
2017-May-25 03:11N 40°48' E 014°15'2 9.9
2017-May-25 03:00N 40°49' E 014°17'1 1.9
2017-May-25 02:20N 40°50' E 014°17'77 8.1
2017-May-24 16:55N 40°14' E 012°48'916.5
2017-May-24 16:24N 40°10' E 012°39'916.4
2017-May-24 15:52N 40°06' E 012°28'716.5
2017-May-24 15:28N 40°03' E 012°20'816.6
2017-May-24 15:00N 39°60' E 012°11'1216.5
2017-May-24 14:18N 39°54' E 011°58'1316.5
2017-May-24 13:29N 39°48' E 011°42'816.7
2017-May-24 12:59N 39°45' E 011°33'816.6
2017-May-24 12:31N 39°41' E 011°24'916.9
2017-May-24 11:58N 39°37' E 011°13'918.5
2017-May-24 11:29N 39°32' E 011°02'1018.7
2017-May-24 10:55N 39°28' E 010°50'818.6
2017-May-24 10:30N 39°25' E 010°41'918.4
2017-May-24 10:00N 39°21' E 010°30'44218.0
2017-May-23 09:29N 37°13' E 001°32'33318.3
2017-May-22 15:16N 35°59' W 005°13'519.4
2017-May-22 15:00N 35°58' W 005°19'189 6.6
2017-May-21 10:09N 36°34' W 009°10'7615.8
2017-May-21 05:18N 37°44' W 009°49'817.4
2017-May-21 04:49N 37°52' W 009°52'617.6
2017-May-21 04:30N 37°57' W 009°53'917.5
2017-May-21 04:00N 38°06' W 009°56'917.6
2017-May-21 03:30N 38°14' W 009°58'917.5
2017-May-21 03:00N 38°23' W 010°00'917.5
2017-May-21 02:30N 38°31' W 010°03'917.3
2017-May-21 02:00N 38°40' W 010°05'917.5
2017-May-21 01:30N 38°49' W 010°06'918.1
2017-May-21 01:00N 38°58' W 010°05'918.1
2017-May-21 00:30N 39°07' W 010°04'917.7
2017-May-21 00:00N 39°15' W 010°05'918.0
2017-May-20 23:30N 39°24' W 010°04'917.6
2017-May-20 23:00N 39°33' W 010°04'917.9
2017-May-20 22:30N 39°42' W 010°05'917.9
2017-May-20 22:00N 39°51' W 010°04'1817.9
2017-May-20 21:00N 40°09' W 010°04'917.8
2017-May-20 20:30N 40°18' W 010°04'917.8
2017-May-20 20:00N 40°27' W 010°04'917.7
2017-May-20 19:30N 40°36' W 010°04'917.8
2017-May-20 19:00N 40°44' W 010°05'1817.8
2017-May-20 18:00N 41°02' W 010°08'918.1
2017-May-20 17:30N 41°11' W 010°08'1817.8
2017-May-20 16:30N 41°29' W 010°09'46316.3
2017-May-19 12:07N 46°60' W 002°36'618.1
2017-May-19 11:46N 47°03' W 002°29'517.5
2017-May-19 11:28N 47°07' W 002°23'511.3
2017-May-19 11:00N 47°11' W 002°18'714.0
2017-May-19 10:30N 47°16' W 002°11'1 2.7
2017-May-19 10:00N 47°17' W 002°10'0 0.0
2017-May-19 09:12N 47°17' W 002°10'0 0.0
2017-May-19 08:48N 47°17' W 002°10'0 0.0
2017-May-19 08:24N 47°17' W 002°10'0 0.0
2017-May-19 07:24N 47°17' W 002°10'0 0.0
2017-May-19 06:54N 47°17' W 002°10'0 0.0
2017-May-19 06:30N 47°17' W 002°10'0 0.0
2017-May-19 03:42N 47°17' W 002°10'0 0.0
2017-May-19 03:30N 47°17' W 002°10'0 0.0
2017-May-19 03:00N 47°17' W 002°10'0 0.0
2017-May-19 02:18N 47°17' W 002°10'0 0.0
2017-May-19 00:42N 47°17' W 002°10'0 0.0
2017-May-19 00:18N 47°17' W 002°10'0 0.0
2017-May-18 23:54N 47°17' W 002°10'0 0.0
2017-May-18 23:24N 47°17' W 002°10'0 0.0
2017-May-18 23:00N 47°17' W 002°10'0 0.0
2017-May-18 22:30N 47°17' W 002°10'5 9.4
2017-May-18 22:00N 47°14' W 002°15'714.0
2017-May-18 21:30N 47°08' W 002°20'714.1
2017-May-18 21:00N 47°03' W 002°28'56416.2
2017-May-17 10:11N 39°21' W 009°52'317.4
2017-May-17 10:00N 39°17' W 009°52'817.4
2017-May-17 09:30N 39°09' W 009°52'917.1
2017-May-17 09:00N 39°00' W 009°51'917.6
2017-May-17 08:30N 38°52' W 009°51'817.0
2017-May-17 08:00N 38°43' W 009°50'917.2
2017-May-17 07:30N 38°35' W 009°47'917.3
2017-May-17 07:00N 38°26' W 009°45'917.8
2017-May-17 06:30N 38°18' W 009°43'917.7
2017-May-17 06:00N 38°09' W 009°40'917.7
2017-May-17 05:30N 38°01' W 009°37'917.8
2017-May-17 05:00N 37°52' W 009°34'917.7
2017-May-17 04:30N 37°43' W 009°32'917.8
2017-May-17 04:00N 37°35' W 009°29'917.5
2017-May-17 03:30N 37°26' W 009°27'917.3
2017-May-17 03:00N 37°18' W 009°25'917.3
2017-May-17 02:30N 37°09' W 009°22'3116.6
2017-May-17 00:39N 36°43' W 009°02'217.2
2017-May-17 00:30N 36°42' W 008°59'1718.0
2017-May-16 23:34N 36°37' W 008°39'318.0
2017-May-16 23:22N 36°36' W 008°35'717.9
2017-May-16 23:00N 36°34' W 008°27'44917.2
2017-May-15 20:56N 36°58' E 000°53'3111.7
2017-May-15 18:17N 37°06' E 001°30'611.6
2017-May-15 17:49N 37°07' E 001°37'411.6
2017-May-15 17:30N 37°08' E 001°41'14812.1
2017-May-15 05:19N 37°39' E 004°43'611.7
2017-May-15 04:47N 37°40' E 004°51'  

Dump ship's entire track history